»·PEaware :: N176CM KSBA-KSBP

N176CM :: KSBA-KSBP

FLIGHT INFORMATION

Flight Status: Arrived
Operator: Privately registered:
United States
More flights under this callsign
Pilot: Hunter M. (19355)
Aircraft: CESSNA 172 SKYHAWK
(C172)
More flights by this aircraft type
Origin: KSBA Santa Barbara Mun
United States
Destination: KSBP San Luis Co Regl
United States
More flights between these airports :: More routes between these airports
Route: GVO V27 MQO
File this flight plan on PilotEdge
Remarks: NONE
Altitude:
(Current/Filed)
6,000ft
Speed:
(Current/Filed)
118kts
Departed: 12-Nov-19 10:54 AM
Arrived: 12-Nov-19 11:43 AM
Distance/Time
Traveled:
63nm/0:49
Distance/Time
To Go:
Arrived

Flight Plot

Page will automatically refresh every two minutes.


Map Options




Map Legend


Flown Route
Filed Route
Departure Airport
Arrival Airport
Navaid (VOR, NDB)
Fix

Horizontal Profiles

Position Reports

Time Latitude Longitude Heading Altitude Ground
Speed
12-Nov-19 10:13 34.431473 -119.831912 358 13ft 0kts
12-Nov-19 10:14 34.431474 -119.831912 358 13ft 0kts
12-Nov-19 10:16 34.431475 -119.831912 358 13ft 0kts
12-Nov-19 10:17 34.431477 -119.831912 358 13ft 0kts
12-Nov-19 10:18 34.431478 -119.831912 358 13ft 0kts
12-Nov-19 10:19 34.431479 -119.831912 358 13ft 0kts
12-Nov-19 10:20 34.431480 -119.831912 358 13ft 0kts
12-Nov-19 10:21 34.431481 -119.831912 358 13ft 0kts
12-Nov-19 10:22 34.431482 -119.831912 358 13ft 0kts
12-Nov-19 10:23 34.431483 -119.831912 358 13ft 0kts
12-Nov-19 10:24 34.431485 -119.831912 358 13ft 0kts
12-Nov-19 10:25 34.431486 -119.831912 358 13ft 0kts
12-Nov-19 10:26 34.431487 -119.831912 358 13ft 0kts
12-Nov-19 10:27 34.431488 -119.831912 358 13ft 0kts
12-Nov-19 10:28 34.431489 -119.831912 358 13ft 0kts
12-Nov-19 10:29 34.431490 -119.831913 358 13ft 0kts
12-Nov-19 10:30 34.431491 -119.831913 358 13ft 0kts
12-Nov-19 10:31 34.431493 -119.831913 358 13ft 0kts
12-Nov-19 10:32 34.431494 -119.831913 358 13ft 0kts
12-Nov-19 10:33 34.431495 -119.831913 358 13ft 0kts
12-Nov-19 10:34 34.431496 -119.831913 358 13ft 0kts
12-Nov-19 10:34 34.431497 -119.831913 358 13ft 0kts
12-Nov-19 10:36 34.431498 -119.831913 359 13ft 0kts
12-Nov-19 10:37 34.431500 -119.831913 359 13ft 0kts
12-Nov-19 10:37 34.431500 -119.831913 359 13ft 0kts
12-Nov-19 10:38 34.431502 -119.831913 359 13ft 0kts
12-Nov-19 10:40 34.431503 -119.831913 359 13ft 0kts
12-Nov-19 10:40 34.431504 -119.831913 359 13ft 0kts
12-Nov-19 10:41 34.431505 -119.831913 359 13ft 0kts
12-Nov-19 10:42 34.431506 -119.831913 359 13ft 0kts
12-Nov-19 10:43 34.431507 -119.831913 359 13ft 0kts
12-Nov-19 10:44 34.431509 -119.831913 359 13ft 0kts
12-Nov-19 10:45 34.431510 -119.831913 359 13ft 0kts
12-Nov-19 10:46 34.431511 -119.831913 359 13ft 0kts
12-Nov-19 10:47 34.431629 -119.832331 270 13ft 3kts
12-Nov-19 10:48 34.432221 -119.833275 359 13ft 4kts
12-Nov-19 10:49 34.431802 -119.836397 245 13ft 24kts
12-Nov-19 10:50 34.430503 -119.840075 242 13ft 0kts
12-Nov-19 10:51 34.430494 -119.840089 221 13ft 0kts
12-Nov-19 10:52 34.430328 -119.840199 185 13ft 7kts
12-Nov-19 10:53 34.425369 -119.838691 164 42ft 73kts
12-Nov-19 10:54 34.404137 -119.835875 168 987ft 77kts
12-Nov-19 10:55 34.382467 -119.833372 169 1873ft 81kts
12-Nov-19 10:56 34.359567 -119.833633 244 2681ft 84kts
12-Nov-19 10:57 34.354699 -119.859045 262 3542ft 76kts
12-Nov-19 10:58 34.349820 -119.883919 262 4324ft 75kts
12-Nov-19 10:59 34.344945 -119.908387 262 5047ft 74kts
12-Nov-19 11:00 34.340132 -119.932726 269 5720ft 73kts
12-Nov-19 11:01 34.356247 -119.942910 334 6284ft 76kts
12-Nov-19 11:02 34.379888 -119.954181 337 6252ft 78kts
12-Nov-19 11:03 34.402903 -119.966265 332 5993ft 92kts
12-Nov-19 11:04 34.424488 -119.979978 329 5997ft 85kts
12-Nov-19 11:05 34.445014 -119.994261 327 6000ft 85kts
12-Nov-19 11:06 34.464804 -120.009383 325 6010ft 79kts
12-Nov-19 11:07 34.484846 -120.026331 323 6026ft 98kts
12-Nov-19 11:08 34.506881 -120.047318 320 6010ft 102kts
12-Nov-19 11:09 34.524246 -120.074344 300 6010ft 102kts
12-Nov-19 11:10 34.541700 -120.100656 323 6015ft 102kts
12-Nov-19 11:11 34.564435 -120.121397 322 6009ft 102kts
12-Nov-19 11:12 34.587071 -120.142158 322 6009ft 102kts
12-Nov-19 11:13 34.609702 -120.162928 322 6009ft 102kts
12-Nov-19 11:14 34.632349 -120.183731 322 6009ft 101kts
12-Nov-19 11:15 34.654914 -120.204476 322 6011ft 101kts
12-Nov-19 11:16 34.677436 -120.225195 322 6012ft 101kts
12-Nov-19 11:17 34.699977 -120.245943 322 6016ft 101kts
12-Nov-19 11:18 34.722450 -120.266643 322 6015ft 101kts
12-Nov-19 11:19 34.744994 -120.287423 322 6015ft 101kts
12-Nov-19 11:20 34.767428 -120.308116 322 6016ft 101kts
12-Nov-19 11:21 34.789899 -120.328857 322 6017ft 101kts
12-Nov-19 11:22 34.812452 -120.349690 322 6024ft 101kts
12-Nov-19 11:23 34.834984 -120.370513 322 6023ft 101kts
12-Nov-19 11:24 34.857518 -120.391355 322 6025ft 101kts
12-Nov-19 11:25 34.880513 -120.411282 334 6027ft 101kts
12-Nov-19 11:26 34.908781 -120.412836 344 6025ft 102kts
12-Nov-19 11:27 34.936615 -120.420045 344 6025ft 102kts
12-Nov-19 11:28 34.965034 -120.425801 352 5947ft 107kts
12-Nov-19 11:29 34.994568 -120.428889 353 5344ft 105kts
12-Nov-19 11:30 35.023939 -120.431833 353 4749ft 106kts
12-Nov-19 11:31 35.053575 -120.434801 353 4155ft 107kts
12-Nov-19 11:32 35.083264 -120.437776 353 3555ft 107kts
12-Nov-19 11:33 35.111392 -120.440799 352 3305ft 91kts
12-Nov-19 11:34 35.129414 -120.456727 304 3317ft 90kts
12-Nov-19 11:35 35.143851 -120.481266 307 2894ft 82kts
12-Nov-19 11:36 35.156555 -120.502248 308 2938ft 75kts
12-Nov-19 11:37 35.170090 -120.521941 311 2976ft 76kts
12-Nov-19 11:38 35.185958 -120.544291 308 2482ft 91kts
12-Nov-19 11:39 35.199872 -120.567747 294 1936ft 84kts
12-Nov-19 11:40 35.211386 -120.593907 297 1327ft 89kts
12-Nov-19 11:41 35.224800 -120.618747 303 718ft 83kts
12-Nov-19 11:42 35.235454 -120.637727 306 215ft 19kts
12-Nov-19 11:43 35.235981 -120.636661 307 215ft 8kts
12-Nov-19 11:44 35.237023 -120.637308 9 215ft 8kts
12-Nov-19 11:45 35.237659 -120.637228 15 215ft 0kts
12-Nov-19 11:46 35.237660 -120.637227 15 215ft 0kts

Navigation Log

Ident Type
Flight plan parsing failed, navigation log unavailable